Wausau, WI

10:43 PM CDT on September 15, 2014 (GMT -0500)
6 White Pillars | Change Station
CLOSE
Current Station
Personal Weather Station
Location: Wausau, WI
Elevation: 1381 ft
Nearby Weather Stations
Active Advisory: Frost Advisory

Elev 1381 ft 45.00 °N, 89.60 °W | Updated 1 minute ago

Clear
Clear
43.3 °F
Feels Like 43 °F
N
0.0
Wind Variable Wind from North
Gusts 0.0 mph

Today
High -- | Low -- °F
--% Chance of Precip.
Yesterday
High -- | Low -- °F
Precip. -- in
6:37 AM 7:09 PM
Waning Gibbous, 49% visible
Pressure 30.20 in
Visibility 10.0 miles
Clouds Clear
Windchill 43 °F
Dew Point 38 °F
Humidity 83%
Rainfall 0.01 in
Snow Depth Not available.
UV 0 out of 12
Pollen 4.20 out of 12
Air Quality Not available.
Flu Activity Not available.
METAR KAUW 160254Z AUTO 00000KT 10SM CLR 08/04 A3017 RMK AO2 SLP225 T00780044 51015

More Conditions Fewer Conditions

Pressure 30.20 in
Visibility 10.0 miles
Clouds Clear
Windchill 43 °F
Dew Point 38 °F
Humidity 83%
Rainfall 0.01 in
Snow Depth Not available.
UV 0 out of 12
Pollen 4.20 out of 12
Air Quality Not available.
Flu Activity Not available.
METAR KAUW 160254Z AUTO 00000KT 10SM CLR 08/04 A3017 RMK AO2 SLP225 T00780044 51015

More Conditions Fewer Conditions

10-Day Weather Forecast

Almanac

Astronomy

Sep. 15, 2014 Rise Set
Actual Time 6:37 AM CDT 7:09 PM CDT
Civil Twilight 6:07 AM CDT 7:38 PM CDT
Nautical Twilight 5:32 AM CDT 8:13 PM CDT
Astronomical Twilight 4:56 AM CDT 8:49 PM CDT
Moon 11:37 PM CDT (9/15) 1:52 PM CDT (9/15)
Length of Visible Light 13h 31m
Length of Day
12h 32m
Tomorrow will be 3m 6s shorter.
Waning Gibbous, 49% of the Moon is Illuminated
Today
Waning Gibbous
Sep 24
New
Oct 1
First Quarter
Oct 8
Full
Oct 15
Last Quarter

Today's Extremes

State Highs State Lows

Community

WunderPhotos

Upload Photos

1,753,693 photos uploaded!

Nearby

Snow Depth

Station Depth Elevation
No new snow has been reported.

Earthquake Activity

City Distance Mag. Time & Date
No recent earthquake activity has been reported nearby.
Minimum magnitude displayed is 2.5.

Coastal Water Temperatures

Place Temperature
No Stations Reporting

Nearby Weather Stations